Time;durP1;ratioP1;P1;durP2;ratioP2;P2;SDS_P1;SDS_P2;PMS_P1;PMS_P2;Temp;Humidity;BMP_temperature;BMP_pressure;BME280_temperature;BME280_humidity;BME280_pressure;Samples;Min_cycle;Max_cycle;Signal;HPM_P1;HPM_P2
2023/05/15 00:00:43;;;;;;;;;;;22.20;42.90;;;;;;5133499;27;19912;-53
2023/05/15 00:03:08;;;;;;;;;;;22.10;42.90;;;;;;5132958;27;19916;-54
2023/05/15 00:05:34;;;;;;;;;;;22.10;43.10;;;;;;5133294;27;19912;-54
2023/05/15 00:07:59;;;;;;;;;;;22.20;43.20;;;;;;5133012;27;19907;-53
2023/05/15 00:10:25;;;;;;;;;;;22.20;43.20;;;;;;5132942;27;19920;-54
2023/05/15 00:12:50;;;;;;;;;;;22.10;43.10;;;;;;5131571;27;19922;-54
2023/05/15 00:15:16;;;;;;;;;;;22.10;43.30;;;;;;5133764;27;20279;-54
2023/05/15 00:17:41;;;;;;;;;;;22.20;43.40;;;;;;5133141;27;20331;-54
2023/05/15 00:20:09;;;;;;;;;;;22.10;43.20;;;;;;5133326;27;19955;-54
2023/05/15 00:22:34;;;;;;;;;;;22.10;43.30;;;;;;5114629;27;19934;-54
2023/05/15 00:25:00;;;;;;;;;;;22.10;43.30;;;;;;5133926;27;19911;-53
2023/05/15 00:27:25;;;;;;;;;;;22.10;43.50;;;;;;5112949;27;19939;-54
2023/05/15 00:29:50;;;;;;;;;;;22.10;44.10;;;;;;5132618;27;20010;-54
2023/05/15 00:32:16;;;;;;;;;;;22.10;43.70;;;;;;5113692;27;20010;-54
2023/05/15 00:34:41;;;;;;;;;;;22.10;43.70;;;;;;5132494;27;19912;-54
2023/05/15 00:37:07;;;;;;;;;;;22.10;43.70;;;;;;5133605;27;19908;-53
2023/05/15 00:39:32;;;;;;;;;;;22.10;43.50;;;;;;5113307;27;20387;-54
2023/05/15 00:41:58;;;;;;;;;;;22.10;44.30;;;;;;5133543;27;20012;-54
2023/05/15 00:44:24;;;;;;;;;;;22.00;43.70;;;;;;5119002;27;20366;-54
2023/05/15 00:46:49;;;;;;;;;;;22.00;43.50;;;;;;5133814;27;20034;-54
2023/05/15 00:49:15;;;;;;;;;;;22.00;43.70;;;;;;5111309;27;20048;-53
2023/05/15 00:51:41;;;;;;;;;;;22.00;43.80;;;;;;5130965;27;19915;-54
2023/05/15 00:54:06;;;;;;;;;;;22.00;43.80;;;;;;5127258;27;19911;-54
2023/05/15 00:56:32;;;;;;;;;;;22.00;43.80;;;;;;5133304;27;19914;-54
2023/05/15 00:58:58;;;;;;;;;;;22.00;43.80;;;;;;5125177;27;19919;-53
2023/05/15 01:01:24;;;;;;;;;;;22.00;44.00;;;;;;5127521;27;19918;-53
2023/05/15 01:03:50;;;;;;;;;;;21.90;44.60;;;;;;5113768;28;19916;-54
2023/05/15 01:06:15;;;;;;;;;;;22.00;44.00;;;;;;5133200;27;19907;-54
2023/05/15 01:08:46;;;;;;;;;;;21.90;43.90;;;;;;5131328;27;19919;-53
2023/05/15 01:11:12;;;;;;;;;;;21.90;44.10;;;;;;5132185;27;19998;-53
2023/05/15 01:13:38;;;;;;;;;;;22.00;44.10;;;;;;5129912;28;20038;-53
2023/05/15 01:16:05;;;;;;;;;;;21.90;44.20;;;;;;5124443;28;20961;-53
2023/05/15 01:18:33;;;;;;;;;;;21.90;44.10;;;;;;5128021;28;20414;-53
2023/05/15 01:21:04;;;;;;;;;;;21.90;44.30;;;;;;5129304;28;19919;-53
2023/05/15 01:23:36;;;;;;;;;;;21.80;44.30;;;;;;5130887;28;20329;-53
2023/05/15 01:26:07;;;;;;;;;;;21.80;44.40;;;;;;5111636;28;19911;-53
2023/05/15 01:28:37;;;;;;;;;;;21.80;44.40;;;;;;5112407;28;19943;-54
2023/05/15 01:31:04;;;;;;;;;;;21.90;44.50;;;;;;5128823;28;19919;-53
2023/05/15 01:33:34;;;;;;;;;;;21.90;44.30;;;;;;5114383;28;19960;-53
2023/05/15 01:36:15;;;;;;;;;;;21.80;44.50;;;;;;5131606;28;20263;-53
2023/05/15 01:38:51;;;;;;;;;;;21.80;44.50;;;;;;5112476;28;19922;-53
2023/05/15 01:41:23;;;;;;;;;;;21.80;44.50;;;;;;5114303;28;19915;-53
2023/05/15 01:43:51;;;;;;;;;;;21.80;44.50;;;;;;5124808;28;19926;-53
2023/05/15 01:46:17;;;;;;;;;;;21.80;44.60;;;;;;5093652;28;19920;-53
2023/05/15 01:48:43;;;;;;;;;;;21.80;44.60;;;;;;5131590;28;20006;-53
2023/05/15 01:51:08;;;;;;;;;;;21.80;44.60;;;;;;5105107;28;20073;-53
2023/05/15 01:53:34;;;;;;;;;;;21.80;44.50;;;;;;5123827;28;19960;-54
2023/05/15 01:55:59;;;;;;;;;;;21.70;44.70;;;;;;5130296;28;19993;-53
2023/05/15 01:58:25;;;;;;;;;;;21.80;44.70;;;;;;5111909;28;19907;-53
2023/05/15 02:00:50;;;;;;;;;;;21.80;44.60;;;;;;5131120;27;19942;-51
2023/05/15 02:03:16;;;;;;;;;;;21.70;44.70;;;;;;5116684;27;19911;-53
2023/05/15 02:05:41;;;;;;;;;;;21.70;44.60;;;;;;5118116;27;19907;-53
2023/05/15 02:08:06;;;;;;;;;;;21.70;44.70;;;;;;5135412;27;19919;-53
2023/05/15 02:10:32;;;;;;;;;;;21.70;44.80;;;;;;5117914;27;19919;-53
2023/05/15 02:12:58;;;;;;;;;;;21.70;44.90;;;;;;5133455;27;19957;-53
2023/05/15 02:15:23;;;;;;;;;;;21.70;44.90;;;;;;5136475;27;20397;-53
2023/05/15 02:17:49;;;;;;;;;;;21.70;44.90;;;;;;5134043;27;20009;-53
2023/05/15 02:20:15;;;;;;;;;;;21.60;44.90;;;;;;5135608;27;19969;-53
2023/05/15 02:22:40;;;;;;;;;;;21.60;45.00;;;;;;5135083;27;19919;-53
2023/05/15 02:25:06;;;;;;;;;;;21.60;45.00;;;;;;5135100;27;19918;-53
2023/05/15 02:27:37;;;;;;;;;;;21.60;44.90;;;;;;5116632;27;20408;-53
2023/05/15 02:30:12;;;;;;;;;;;21.60;44.90;;;;;;5115711;27;19967;-53
2023/05/15 02:32:53;;;;;;;;;;;21.60;45.00;;;;;;5134508;27;20324;-53
2023/05/15 02:35:21;;;;;;;;;;;21.60;45.10;;;;;;5116909;27;19916;-53
2023/05/15 02:37:48;;;;;;;;;;;21.60;45.00;;;;;;5134668;27;20299;-53
2023/05/15 02:40:15;;;;;;;;;;;21.60;44.90;;;;;;5115028;27;19918;-53
2023/05/15 02:42:40;;;;;;;;;;;21.50;45.00;;;;;;5109656;27;19916;-53
2023/05/15 02:45:06;;;;;;;;;;;21.50;45.10;;;;;;5110088;27;19911;-53
2023/05/15 02:47:32;;;;;;;;;;;21.50;45.10;;;;;;5116155;27;20402;-53
2023/05/15 02:49:57;;;;;;;;;;;21.50;45.20;;;;;;5135717;27;19912;-53
2023/05/15 02:52:23;;;;;;;;;;;21.50;45.10;;;;;;5109004;27;20006;-53
2023/05/15 02:54:48;;;;;;;;;;;21.50;45.10;;;;;;5117140;27;19995;-53
2023/05/15 02:57:14;;;;;;;;;;;21.50;45.00;;;;;;5115324;27;19916;-53
2023/05/15 02:59:40;;;;;;;;;;;21.50;45.10;;;;;;5132062;27;19922;-53
2023/05/15 03:02:05;;;;;;;;;;;21.50;45.10;;;;;;5131169;27;19918;-53
2023/05/15 03:04:31;;;;;;;;;;;21.50;45.20;;;;;;5133267;27;19915;-53
2023/05/15 03:06:56;;;;;;;;;;;21.50;45.20;;;;;;5135404;27;19907;-53
2023/05/15 03:09:21;;;;;;;;;;;21.50;45.20;;;;;;5131616;27;20010;-53
2023/05/15 03:11:47;;;;;;;;;;;21.40;45.30;;;;;;5118457;27;19915;-53
2023/05/15 03:14:13;;;;;;;;;;;21.40;45.30;;;;;;5132231;27;19912;-53
2023/05/15 03:16:39;;;;;;;;;;;21.40;45.40;;;;;;5132516;27;19911;-55
2023/05/15 03:19:04;;;;;;;;;;;21.40;45.40;;;;;;5134770;27;20006;-54
2023/05/15 03:21:30;;;;;;;;;;;21.40;45.40;;;;;;5134228;27;20314;-54
2023/05/15 03:23:56;;;;;;;;;;;21.40;45.30;;;;;;5116711;27;19990;-53
2023/05/15 03:26:21;;;;;;;;;;;21.40;45.30;;;;;;5127304;27;19915;-54
2023/05/15 03:28:47;;;;;;;;;;;21.40;45.20;;;;;;5128519;27;19915;-53
2023/05/15 03:31:13;;;;;;;;;;;21.40;45.40;;;;;;5130259;27;20367;-54
2023/05/15 03:33:38;;;;;;;;;;;21.40;45.40;;;;;;5096404;28;20332;-53
2023/05/15 03:36:04;;;;;;;;;;;21.30;45.30;;;;;;5127756;27;19919;-54
2023/05/15 03:38:29;;;;;;;;;;;21.30;45.30;;;;;;5116134;27;19998;-53
2023/05/15 03:40:55;;;;;;;;;;;21.30;45.40;;;;;;5133587;27;20010;-53
2023/05/15 03:43:20;;;;;;;;;;;21.30;45.30;;;;;;5133652;27;19911;-54
2023/05/15 03:45:46;;;;;;;;;;;21.30;45.40;;;;;;5131303;27;19920;-54
2023/05/15 03:48:11;;;;;;;;;;;21.30;45.50;;;;;;5134468;27;20427;-53
2023/05/15 03:50:38;;;;;;;;;;;21.30;45.50;;;;;;5130174;27;19923;-53
2023/05/15 03:53:03;;;;;;;;;;;21.20;45.40;;;;;;5110978;27;19980;-54
2023/05/15 03:55:29;;;;;;;;;;;21.20;45.40;;;;;;5127790;27;19979;-53
2023/05/15 03:57:54;;;;;;;;;;;21.20;45.40;;;;;;5108998;27;19915;-54
2023/05/15 04:00:20;;;;;;;;;;;21.20;45.40;;;;;;5114685;27;19912;-54
2023/05/15 04:02:46;;;;;;;;;;;21.20;45.40;;;;;;5131544;27;19956;-53
2023/05/15 04:05:11;;;;;;;;;;;21.20;45.50;;;;;;5121111;27;20004;-54
2023/05/15 04:07:37;;;;;;;;;;;21.20;45.50;;;;;;5113464;28;19953;-53
2023/05/15 04:10:03;;;;;;;;;;;21.20;45.70;;;;;;5129346;27;19926;-54
2023/05/15 04:12:28;;;;;;;;;;;21.10;45.70;;;;;;5131894;27;20732;-55
2023/05/15 04:14:57;;;;;;;;;;;21.20;45.70;;;;;;5132930;27;19922;-54
2023/05/15 04:17:23;;;;;;;;;;;21.20;45.80;;;;;;5132541;27;19911;-54
2023/05/15 04:19:48;;;;;;;;;;;21.10;45.80;;;;;;5133952;27;20010;-54
2023/05/15 04:22:14;;;;;;;;;;;21.10;45.70;;;;;;5128252;27;19959;-54
2023/05/15 04:24:39;;;;;;;;;;;21.10;45.80;;;;;;5115136;27;20393;-54
2023/05/15 04:27:05;;;;;;;;;;;21.10;45.80;;;;;;5131603;27;20358;-54
2023/05/15 04:29:31;;;;;;;;;;;21.10;45.90;;;;;;5132837;27;19915;-54
2023/05/15 04:31:56;;;;;;;;;;;21.10;46.50;;;;;;5128091;27;20306;-54
2023/05/15 04:34:22;;;;;;;;;;;21.10;45.90;;;;;;5133823;27;20006;-54
2023/05/15 04:36:47;;;;;;;;;;;21.10;46.00;;;;;;5132807;27;19911;-54
2023/05/15 04:39:13;;;;;;;;;;;21.10;46.00;;;;;;5132706;27;19911;-54
2023/05/15 04:41:38;;;;;;;;;;;21.10;46.00;;;;;;5129601;27;19926;-54
2023/05/15 04:44:04;;;;;;;;;;;21.10;46.00;;;;;;5127724;27;20336;-54
2023/05/15 04:46:33;;;;;;;;;;;21.10;46.20;;;;;;5120322;27;19951;-54
2023/05/15 04:48:59;;;;;;;;;;;21.10;46.10;;;;;;5132531;27;19922;-54
2023/05/15 04:51:24;;;;;;;;;;;21.10;46.20;;;;;;5130975;27;19916;-54
2023/05/15 04:53:50;;;;;;;;;;;21.10;46.20;;;;;;5131547;27;20479;-54
2023/05/15 04:56:15;;;;;;;;;;;21.10;46.20;;;;;;5128166;27;19955;-54
2023/05/15 04:58:40;;;;;;;;;;;21.10;46.30;;;;;;5131155;27;19919;-54
2023/05/15 05:01:06;;;;;;;;;;;21.00;46.40;;;;;;5127628;27;19915;-54
2023/05/15 05:03:32;;;;;;;;;;;21.00;46.60;;;;;;5130354;27;19918;-54
2023/05/15 05:05:57;;;;;;;;;;;21.00;46.60;;;;;;5131031;27;20405;-54
2023/05/15 05:08:23;;;;;;;;;;;21.00;46.70;;;;;;5132909;27;20287;-54
2023/05/15 05:10:50;;;;;;;;;;;21.00;46.70;;;;;;5132087;27;20278;-54
2023/05/15 05:13:15;;;;;;;;;;;21.00;46.60;;;;;;5110584;28;19912;-54
2023/05/15 05:15:41;;;;;;;;;;;21.00;46.70;;;;;;5131403;28;20375;-54
2023/05/15 05:18:06;;;;;;;;;;;21.10;46.70;;;;;;5110642;28;20286;-54
2023/05/15 05:20:31;;;;;;;;;;;21.10;46.70;;;;;;5130923;28;19911;-54
2023/05/15 05:22:57;;;;;;;;;;;21.20;46.70;;;;;;5132860;28;19990;-54
2023/05/15 05:25:22;;;;;;;;;;;21.20;46.60;;;;;;5131214;28;20386;-54
2023/05/15 05:27:48;;;;;;;;;;;21.20;46.50;;;;;;5123636;28;19916;-53
2023/05/15 05:30:13;;;;;;;;;;;21.40;46.20;;;;;;5130195;28;19923;-54
2023/05/15 05:32:39;;;;;;;;;;;21.30;46.30;;;;;;5127177;28;19915;-55
2023/05/15 05:35:05;;;;;;;;;;;21.30;46.10;;;;;;5114355;27;19965;-54
2023/05/15 05:37:30;;;;;;;;;;;21.40;46.10;;;;;;5134501;27;19923;-55
2023/05/15 05:39:56;;;;;;;;;;;21.30;46.10;;;;;;5132280;27;19916;-54
2023/05/15 05:42:21;;;;;;;;;;;21.30;46.30;;;;;;5116807;27;19954;-54
2023/05/15 05:44:46;;;;;;;;;;;21.30;46.20;;;;;;5134544;27;19919;-54
2023/05/15 05:47:12;;;;;;;;;;;21.30;46.40;;;;;;5131869;27;20461;-54
2023/05/15 05:49:38;;;;;;;;;;;21.20;46.40;;;;;;5117121;27;20394;-54
2023/05/15 05:52:06;;;;;;;;;;;21.20;46.50;;;;;;5131562;27;19991;-54
2023/05/15 05:54:31;;;;;;;;;;;21.30;46.40;;;;;;5135807;27;19916;-54
2023/05/15 05:56:56;;;;;;;;;;;21.30;46.50;;;;;;5116872;27;19911;-54
2023/05/15 05:59:22;;;;;;;;;;;21.30;46.50;;;;;;5135476;27;19907;-54
2023/05/15 06:01:49;;;;;;;;;;;21.40;46.40;;;;;;5116464;27;19911;-54
2023/05/15 06:04:15;;;;;;;;;;;21.30;46.40;;;;;;5133335;27;20371;-54
2023/05/15 06:06:40;;;;;;;;;;;21.30;46.40;;;;;;5136274;27;19908;-54
2023/05/15 06:09:06;;;;;;;;;;;21.30;46.40;;;;;;5130143;27;20414;-54
2023/05/15 06:11:31;;;;;;;;;;;21.40;46.30;;;;;;5130989;27;20405;-54
2023/05/15 06:13:57;;;;;;;;;;;21.40;46.10;;;;;;5134064;27;20272;-54
2023/05/15 06:16:22;;;;;;;;;;;21.50;46.00;;;;;;5123696;27;19923;-53
2023/05/15 06:18:48;;;;;;;;;;;21.50;46.10;;;;;;5120971;27;19939;-54
2023/05/15 06:21:13;;;;;;;;;;;21.50;46.30;;;;;;5111203;27;19953;-53
2023/05/15 06:23:39;;;;;;;;;;;21.50;46.20;;;;;;5133618;27;19922;-54
2023/05/15 06:26:04;;;;;;;;;;;21.50;46.10;;;;;;5136061;27;19956;-53
2023/05/15 06:28:29;;;;;;;;;;;21.50;45.90;;;;;;5129313;27;19968;-54
2023/05/15 06:30:55;;;;;;;;;;;21.50;45.90;;;;;;5129139;27;19918;-54
2023/05/15 06:33:21;;;;;;;;;;;21.50;45.80;;;;;;5131201;27;19957;-54
2023/05/15 06:35:46;;;;;;;;;;;21.60;45.80;;;;;;5123122;27;19919;-55
2023/05/15 06:38:12;;;;;;;;;;;21.60;45.80;;;;;;5121560;27;19911;-54
2023/05/15 06:40:37;;;;;;;;;;;21.60;45.80;;;;;;5123664;27;19912;-54
2023/05/15 06:43:03;;;;;;;;;;;21.60;45.70;;;;;;5130691;27;19912;-53
2023/05/15 06:45:28;;;;;;;;;;;21.70;45.80;;;;;;5130776;27;20018;-53
2023/05/15 06:47:53;;;;;;;;;;;21.60;45.80;;;;;;5132709;27;19916;-53
2023/05/15 06:50:19;;;;;;;;;;;21.70;45.80;;;;;;5127224;27;19930;-52
2023/05/15 06:52:44;;;;;;;;;;;21.70;45.80;;;;;;5127412;27;19964;-53
2023/05/15 06:55:10;;;;;;;;;;;21.70;45.80;;;;;;5129877;27;19916;-54
2023/05/15 06:57:35;;;;;;;;;;;21.70;45.60;;;;;;5129604;27;19919;-54
2023/05/15 07:00:01;;;;;;;;;;;21.80;45.60;;;;;;5127484;27;19919;-54
2023/05/15 07:02:26;;;;;;;;;;;21.80;45.50;;;;;;5128873;27;19920;-54
2023/05/15 07:04:52;;;;;;;;;;;21.80;45.40;;;;;;5133982;27;20368;-55
2023/05/15 07:07:17;;;;;;;;;;;21.80;45.30;;;;;;5117449;27;19922;-53
2023/05/15 07:09:47;;;;;;;;;;;21.80;45.10;;;;;;5130387;27;20043;-53
2023/05/15 07:12:13;;;;;;;;;;;21.70;45.00;;;;;;5126709;27;20398;-53
2023/05/15 07:14:38;;;;;;;;;;;21.70;44.90;;;;;;5114216;27;19984;-52
2023/05/15 07:17:04;;;;;;;;;;;21.80;44.70;;;;;;5128801;27;19984;-54
2023/05/15 07:19:29;;;;;;;;;;;21.80;44.50;;;;;;5129510;27;19915;-55
2023/05/15 07:21:55;;;;;;;;;;;21.80;44.40;;;;;;5132871;27;20272;-54
2023/05/15 07:24:20;;;;;;;;;;;21.70;44.10;;;;;;5132146;27;20464;-54
2023/05/15 07:26:46;;;;;;;;;;;21.70;44.00;;;;;;5132672;27;19934;-53
2023/05/15 07:29:11;;;;;;;;;;;21.70;43.60;;;;;;5108959;27;20010;-53
2023/05/15 07:31:39;;;;;;;;;;;21.70;43.60;;;;;;5112707;27;19915;-55
2023/05/15 07:34:04;;;;;;;;;;;21.80;43.30;;;;;;5131832;27;20002;-54
2023/05/15 07:36:30;;;;;;;;;;;21.80;43.10;;;;;;5126396;27;19998;-54
2023/05/15 07:38:55;;;;;;;;;;;21.80;43.00;;;;;;5129868;27;19911;-54
2023/05/15 07:41:21;;;;;;;;;;;21.80;42.90;;;;;;5129688;27;20321;-55
2023/05/15 07:43:46;;;;;;;;;;;21.90;42.80;;;;;;5130848;27;19943;-54
2023/05/15 07:46:12;;;;;;;;;;;21.90;42.60;;;;;;5125311;27;19924;-56
2023/05/15 07:48:37;;;;;;;;;;;21.80;42.50;;;;;;5130606;27;19960;-55
2023/05/15 07:51:03;;;;;;;;;;;21.90;42.50;;;;;;5131486;27;19927;-54
2023/05/15 07:53:28;;;;;;;;;;;21.90;42.30;;;;;;5124837;27;19946;-54
2023/05/15 07:55:54;;;;;;;;;;;21.90;42.20;;;;;;5129996;27;19915;-54
2023/05/15 07:58:19;;;;;;;;;;;21.90;42.10;;;;;;5129901;27;19915;-53
2023/05/15 08:00:44;;;;;;;;;;;22.00;42.00;;;;;;5108398;27;19998;-54
2023/05/15 08:03:10;;;;;;;;;;;22.00;41.60;;;;;;5128568;27;19951;-55
2023/05/15 08:05:36;;;;;;;;;;;22.00;41.60;;;;;;5130110;27;19923;-54
2023/05/15 08:08:01;;;;;;;;;;;22.00;41.60;;;;;;5130586;27;19915;-55
2023/05/15 08:10:26;;;;;;;;;;;22.00;41.30;;;;;;5128705;27;19950;-55
2023/05/15 08:12:52;;;;;;;;;;;22.00;40.90;;;;;;5105842;27;19980;-54
2023/05/15 08:15:17;;;;;;;;;;;22.10;40.80;;;;;;5125488;27;19996;-55
2023/05/15 08:17:43;;;;;;;;;;;22.10;40.70;;;;;;5128534;27;19986;-56
2023/05/15 08:20:08;;;;;;;;;;;22.10;40.60;;;;;;5130992;27;19911;-55
2023/05/15 08:22:34;;;;;;;;;;;22.10;40.40;;;;;;5125718;27;19964;-55
2023/05/15 08:24:59;;;;;;;;;;;22.10;40.20;;;;;;5129014;27;19957;-55
2023/05/15 08:27:25;;;;;;;;;;;22.20;40.00;;;;;;5122808;27;20002;-55
2023/05/15 08:29:51;;;;;;;;;;;22.20;39.90;;;;;;5125442;27;19919;-56
2023/05/15 08:32:17;;;;;;;;;;;22.20;40.00;;;;;;5126929;27;19922;-56
2023/05/15 08:34:42;;;;;;;;;;;22.20;39.80;;;;;;5129627;27;20338;-57
2023/05/15 08:37:07;;;;;;;;;;;22.30;39.70;;;;;;5129926;27;19915;-54
2023/05/15 08:39:33;;;;;;;;;;;22.30;39.60;;;;;;5088334;27;20396;-54
2023/05/15 08:42:07;;;;;;;;;;;22.40;39.60;;;;;;5123580;27;20456;-53
2023/05/15 08:44:32;;;;;;;;;;;22.40;39.70;;;;;;5126077;27;19919;-54
2023/05/15 08:46:58;;;;;;;;;;;22.40;39.90;;;;;;5126273;27;20025;-55
2023/05/15 08:49:27;;;;;;;;;;;22.40;39.80;;;;;;5113152;27;19912;-54
2023/05/15 08:51:52;;;;;;;;;;;22.40;39.70;;;;;;5121840;27;19911;-54
2023/05/15 08:54:18;;;;;;;;;;;22.40;39.70;;;;;;5129485;27;19922;-54
2023/05/15 08:56:43;;;;;;;;;;;22.40;39.80;;;;;;5130575;27;20018;-54
2023/05/15 08:59:09;;;;;;;;;;;22.30;39.60;;;;;;5112158;27;19915;-53
2023/05/15 09:01:34;;;;;;;;;;;22.40;39.80;;;;;;5118089;27;19998;-54
2023/05/15 09:04:00;;;;;;;;;;;22.40;39.50;;;;;;5106149;27;20324;-54
2023/05/15 09:06:25;;;;;;;;;;;22.50;39.30;;;;;;5125203;27;19972;-54
2023/05/15 09:08:51;;;;;;;;;;;22.50;39.20;;;;;;5126083;27;19915;-54
2023/05/15 09:11:16;;;;;;;;;;;22.50;39.30;;;;;;5126298;27;19912;-54
2023/05/15 09:13:42;;;;;;;;;;;22.60;39.30;;;;;;5104283;28;20046;-54
2023/05/15 09:16:07;;;;;;;;;;;22.60;39.20;;;;;;5129661;27;19911;-55
2023/05/15 09:18:32;;;;;;;;;;;22.60;39.00;;;;;;5126862;28;19916;-55
2023/05/15 09:21:17;;;;;;;;;;;22.60;39.20;;;;;;5129824;27;19912;-55
2023/05/15 09:23:42;;;;;;;;;;;22.40;39.30;;;;;;5131063;28;19919;-54
2023/05/15 09:26:10;;;;;;;;;;;22.40;39.20;;;;;;5125011;28;19911;-55
2023/05/15 09:28:35;;;;;;;;;;;22.40;39.10;;;;;;5111844;28;19915;-55
2023/05/15 09:31:02;;;;;;;;;;;22.40;39.10;;;;;;5127985;28;20005;-56
2023/05/15 09:33:31;;;;;;;;;;;22.20;39.20;;;;;;5127753;28;19923;-55
2023/05/15 09:35:57;;;;;;;;;;;22.30;39.00;;;;;;5130677;28;19915;-55
2023/05/15 09:38:22;;;;;;;;;;;22.40;38.80;;;;;;5132083;28;19912;-54
2023/05/15 09:40:48;;;;;;;;;;;22.50;38.50;;;;;;5125485;28;19911;-56
2023/05/15 09:43:14;;;;;;;;;;;22.60;38.30;;;;;;5129851;28;19912;-55
2023/05/15 09:45:40;;;;;;;;;;;22.70;38.20;;;;;;5129474;28;20248;-55
2023/05/15 09:48:05;;;;;;;;;;;22.60;38.20;;;;;;5127318;28;19911;-55
2023/05/15 09:50:35;;;;;;;;;;;22.60;38.10;;;;;;5130208;28;19915;-55
2023/05/15 09:53:00;;;;;;;;;;;22.70;37.90;;;;;;5131734;28;19907;-56
2023/05/15 09:55:26;;;;;;;;;;;22.70;37.80;;;;;;5107263;28;19934;-55
2023/05/15 09:58:11;;;;;;;;;;;22.80;37.40;;;;;;5126458;28;19916;-54
2023/05/15 10:00:37;;;;;;;;;;;22.90;37.30;;;;;;5130099;28;20375;-55
2023/05/15 10:03:03;;;;;;;;;;;22.90;37.30;;;;;;5129544;28;19980;-55
2023/05/15 10:05:29;;;;;;;;;;;23.00;37.40;;;;;;5129993;28;19934;-55
2023/05/15 10:07:57;;;;;;;;;;;23.00;37.50;;;;;;5128596;28;19911;-54
2023/05/15 10:10:23;;;;;;;;;;;23.00;37.40;;;;;;5112047;28;19962;-55
2023/05/15 10:12:52;;;;;;;;;;;23.00;36.80;;;;;;5121608;27;19939;-55
2023/05/15 10:15:18;;;;;;;;;;;23.10;36.80;;;;;;5109447;28;20298;-55
2023/05/15 10:17:44;;;;;;;;;;;23.20;36.70;;;;;;5103316;28;19916;-56
2023/05/15 10:20:10;;;;;;;;;;;23.20;36.50;;;;;;5082199;28;19984;-56
2023/05/15 10:22:36;;;;;;;;;;;23.20;36.60;;;;;;5120261;27;19942;-55
2023/05/15 10:25:02;;;;;;;;;;;23.20;36.50;;;;;;5132335;27;20282;-54
2023/05/15 10:27:27;;;;;;;;;;;23.20;36.60;;;;;;5133874;27;19911;-55
2023/05/15 10:29:53;;;;;;;;;;;23.20;36.50;;;;;;5127263;27;19916;-54
2023/05/15 10:32:19;;;;;;;;;;;23.30;36.20;;;;;;5127239;27;19908;-53
2023/05/15 10:34:45;;;;;;;;;;;23.40;36.30;;;;;;5118878;27;19947;-54
2023/05/15 10:37:10;;;;;;;;;;;23.50;36.10;;;;;;5114009;27;19907;-53
2023/05/15 10:39:36;;;;;;;;;;;23.50;36.20;;;;;;5134187;27;19959;-54
2023/05/15 10:42:02;;;;;;;;;;;23.50;36.40;;;;;;5100713;27;19915;-54
2023/05/15 10:44:27;;;;;;;;;;;23.40;36.30;;;;;;5106994;27;20059;-52
2023/05/15 10:46:52;;;;;;;;;;;23.30;36.50;;;;;;5129324;27;19927;-53
2023/05/15 10:49:18;;;;;;;;;;;23.20;36.70;;;;;;5132153;27;19919;-55
2023/05/15 10:51:43;;;;;;;;;;;23.10;36.60;;;;;;5099750;27;19916;-54
2023/05/15 10:54:09;;;;;;;;;;;23.00;36.60;;;;;;5129017;27;19915;-54
2023/05/15 10:56:37;;;;;;;;;;;23.00;36.50;;;;;;5131490;27;19950;-54
2023/05/15 10:59:06;;;;;;;;;;;23.00;36.50;;;;;;5129391;27;20003;-54
2023/05/15 11:01:33;;;;;;;;;;;22.90;36.50;;;;;;5132480;27;20397;-54
2023/05/15 11:04:06;;;;;;;;;;;22.90;36.60;;;;;;5133610;27;19911;-54
2023/05/15 11:06:32;;;;;;;;;;;22.90;36.70;;;;;;5133111;27;19922;-53
2023/05/15 11:09:16;;;;;;;;;;;23.00;37.00;;;;;;5129540;27;19945;-54
2023/05/15 11:11:51;;;;;;;;;;;23.00;36.70;;;;;;5126903;27;20018;-54
2023/05/15 11:14:20;;;;;;;;;;;23.00;36.70;;;;;;5111804;27;19916;-53
2023/05/15 11:16:51;;;;;;;;;;;23.00;36.70;;;;;;5132679;27;20009;-54
2023/05/15 11:19:35;;;;;;;;;;;22.90;36.80;;;;;;5121502;27;20010;-54
2023/05/15 11:22:06;;;;;;;;;;;23.00;37.10;;;;;;5130344;27;20434;-53
2023/05/15 11:24:35;;;;;;;;;;;23.00;36.80;;;;;;5131309;27;19919;-54
2023/05/15 11:27:01;;;;;;;;;;;22.90;37.00;;;;;;5109310;27;20256;-54
2023/05/15 11:29:27;;;;;;;;;;;22.90;37.00;;;;;;5110436;27;19971;-54
2023/05/15 11:31:52;;;;;;;;;;;22.90;37.00;;;;;;5125775;27;19915;-54
2023/05/15 11:34:33;;;;;;;;;;;22.90;37.10;;;;;;5111479;27;19912;-54
2023/05/15 11:36:59;;;;;;;;;;;22.90;37.20;;;;;;5125209;27;19915;-54
2023/05/15 11:39:25;;;;;;;;;;;22.90;37.30;;;;;;5129291;27;19920;-54
2023/05/15 11:41:50;;;;;;;;;;;22.90;37.30;;;;;;5107511;27;19941;-53
2023/05/15 11:44:22;;;;;;;;;;;22.90;37.10;;;;;;5106396;27;19918;-54
2023/05/15 11:46:49;;;;;;;;;;;22.90;37.10;;;;;;5124409;27;19920;-54
2023/05/15 11:49:14;;;;;;;;;;;22.90;37.20;;;;;;5088676;28;19919;-54
2023/05/15 11:51:42;;;;;;;;;;;22.90;37.30;;;;;;5105988;27;19930;-54
2023/05/15 11:54:08;;;;;;;;;;;23.00;37.50;;;;;;5094252;28;20447;-54
2023/05/15 11:56:34;;;;;;;;;;;23.00;37.50;;;;;;5124898;27;19946;-54
2023/05/15 11:59:00;;;;;;;;;;;23.00;37.50;;;;;;5109774;27;19970;-54
2023/05/15 12:01:25;;;;;;;;;;;23.00;37.60;;;;;;5111610;27;19977;-54
2023/05/15 12:03:52;;;;;;;;;;;23.00;37.70;;;;;;5103218;27;19919;-54
2023/05/15 12:06:18;;;;;;;;;;;23.00;37.40;;;;;;5131052;27;19915;-53
2023/05/15 12:08:44;;;;;;;;;;;23.00;37.00;;;;;;5108229;27;19919;-53
2023/05/15 12:11:09;;;;;;;;;;;23.00;37.50;;;;;;5101266;27;19916;-54
2023/05/15 12:13:35;;;;;;;;;;;23.00;37.60;;;;;;5115342;27;19922;-54
2023/05/15 12:16:03;;;;;;;;;;;23.00;37.80;;;;;;5128933;27;19911;-53
2023/05/15 12:18:30;;;;;;;;;;;23.00;37.70;;;;;;5108076;27;19972;-53
2023/05/15 12:20:56;;;;;;;;;;;23.00;37.80;;;;;;5093245;27;19911;-54
2023/05/15 12:23:23;;;;;;;;;;;23.00;37.70;;;;;;5126883;27;19915;-54
2023/05/15 12:25:48;;;;;;;;;;;23.00;37.70;;;;;;5123890;27;19994;-55
2023/05/15 12:28:14;;;;;;;;;;;23.00;37.80;;;;;;5111889;27;20038;-54
2023/05/15 12:30:40;;;;;;;;;;;23.00;37.80;;;;;;5108246;27;19926;-55
2023/05/15 12:33:06;;;;;;;;;;;23.00;38.00;;;;;;5119007;27;19951;-55
2023/05/15 12:35:33;;;;;;;;;;;23.00;38.00;;;;;;5107990;27;19911;-55
2023/05/15 12:37:59;;;;;;;;;;;23.00;38.00;;;;;;5119553;27;19912;-54
2023/05/15 12:40:25;;;;;;;;;;;23.00;38.10;;;;;;5111650;27;20276;-54
2023/05/15 12:42:52;;;;;;;;;;;23.00;38.20;;;;;;5125506;27;19926;-54
2023/05/15 12:45:19;;;;;;;;;;;23.00;38.30;;;;;;5127214;27;19943;-54
2023/05/15 12:47:45;;;;;;;;;;;23.00;38.50;;;;;;5128773;27;20341;-55
2023/05/15 12:50:17;;;;;;;;;;;23.00;38.80;;;;;;5111797;27;19919;-55
2023/05/15 12:52:46;;;;;;;;;;;23.00;39.20;;;;;;5119304;27;19915;-55
2023/05/15 12:55:14;;;;;;;;;;;23.00;39.20;;;;;;5126603;27;20134;-55
2023/05/15 12:57:40;;;;;;;;;;;23.00;39.30;;;;;;5126081;27;20383;-54
2023/05/15 13:00:08;;;;;;;;;;;23.00;39.40;;;;;;5130356;27;19919;-54
2023/05/15 13:02:34;;;;;;;;;;;23.00;39.80;;;;;;5127272;27;19912;-54
2023/05/15 13:05:01;;;;;;;;;;;23.00;40.30;;;;;;5130423;27;20040;-54
2023/05/15 13:07:27;;;;;;;;;;;23.00;40.10;;;;;;5120756;27;19951;-54
2023/05/15 13:10:05;;;;;;;;;;;23.00;40.50;;;;;;5125553;27;19975;-54
2023/05/15 13:12:37;;;;;;;;;;;22.90;41.00;;;;;;5117846;27;20048;-54
2023/05/15 13:15:04;;;;;;;;;;;22.90;41.50;;;;;;5116228;27;19951;-54
2023/05/15 13:17:29;;;;;;;;;;;22.90;42.40;;;;;;5127469;27;19912;-55
2023/05/15 13:19:55;;;;;;;;;;;22.90;42.40;;;;;;5126261;27;19911;-55
2023/05/15 13:22:20;;;;;;;;;;;22.80;42.50;;;;;;5128510;28;19912;-54
2023/05/15 13:24:46;;;;;;;;;;;22.90;43.40;;;;;;5125397;28;19911;-54
2023/05/15 13:27:11;;;;;;;;;;;22.90;43.40;;;;;;5128903;28;19912;-54
2023/05/15 13:29:36;;;;;;;;;;;22.90;43.80;;;;;;5124087;28;19972;-54
2023/05/15 13:32:02;;;;;;;;;;;22.80;44.40;;;;;;5124238;28;19919;-54
2023/05/15 13:34:27;;;;;;;;;;;22.80;44.70;;;;;;5123415;28;19912;-54
2023/05/15 13:36:53;;;;;;;;;;;22.80;45.30;;;;;;5125864;27;20014;-55
2023/05/15 13:39:18;;;;;;;;;;;22.70;45.30;;;;;;5121424;28;19911;-55
2023/05/15 13:41:44;;;;;;;;;;;22.70;45.10;;;;;;5128625;28;19919;-55
2023/05/15 13:44:09;;;;;;;;;;;22.80;45.30;;;;;;5118701;28;20407;-54
2023/05/15 13:46:35;;;;;;;;;;;22.80;45.50;;;;;;5097694;28;20003;-55
2023/05/15 13:49:00;;;;;;;;;;;22.80;45.40;;;;;;5107049;28;19912;-55
2023/05/15 13:51:26;;;;;;;;;;;22.80;45.90;;;;;;5097866;28;19927;-55
2023/05/15 13:53:51;;;;;;;;;;;22.80;46.00;;;;;;5102867;28;20009;-55
2023/05/15 13:56:17;;;;;;;;;;;22.80;46.70;;;;;;5111448;28;19916;-54
2023/05/15 13:58:42;;;;;;;;;;;22.80;46.80;;;;;;5111119;28;20427;-55
2023/05/15 14:01:08;;;;;;;;;;;22.80;47.40;;;;;;5113893;28;20376;-54
2023/05/15 14:03:33;;;;;;;;;;;22.80;46.90;;;;;;5110447;28;19911;-55
2023/05/15 14:05:59;;;;;;;;;;;22.70;47.00;;;;;;5114588;28;19912;-54
2023/05/15 14:08:24;;;;;;;;;;;22.80;47.00;;;;;;5110598;28;20371;-54
2023/05/15 14:10:49;;;;;;;;;;;22.80;47.10;;;;;;5108955;28;19939;-55